createdAt,value
2023-04-29T00:00:24.634Z,89.73
2023-04-29T00:02:52.899Z,90.69
2023-04-29T00:05:21.321Z,91.05
2023-04-29T00:07:49.558Z,91.35
2023-04-29T00:10:22.171Z,91.92
2023-04-29T00:12:51.554Z,91.96
2023-04-29T00:15:19.913Z,92.33
2023-04-29T00:17:49.412Z,92.99
2023-04-29T00:20:18.072Z,93.24
2023-04-29T00:22:46.269Z,93.28
2023-04-29T00:25:15.662Z,93.20
2023-04-29T00:27:44.240Z,93.33
2023-04-29T00:30:12.819Z,94.49
2023-04-29T00:32:40.994Z,94.41
2023-04-29T00:35:11.129Z,95.00
2023-04-29T00:37:39.427Z,95.63
2023-04-29T00:40:10.150Z,96.01
2023-04-29T00:42:38.446Z,96.45
2023-04-29T00:45:08.380Z,97.02
2023-04-29T00:47:39.245Z,97.45
2023-04-29T00:50:10.685Z,97.80
2023-04-29T00:52:41.134Z,98.00
2023-04-29T00:55:10.300Z,98.19
2023-04-29T00:57:39.128Z,98.48
2023-04-29T01:00:09.987Z,98.95
2023-04-29T01:02:39.162Z,99.46
2023-04-29T01:05:07.754Z,99.75
2023-04-29T01:07:57.574Z,99.75
2023-04-29T01:10:30.652Z,99.73
2023-04-29T01:13:14.309Z,99.90
2023-04-29T01:15:57.730Z,100.00
2023-04-29T01:18:33.531Z,100.00
2023-04-29T01:21:02.768Z,100.00
2023-04-29T01:23:32.455Z,100.00
2023-04-29T01:26:00.928Z,100.00
2023-04-29T01:28:47.399Z,100.00
2023-04-29T01:31:24.222Z,100.00
2023-04-29T01:34:06.274Z,100.00
2023-04-29T01:36:48.687Z,100.00
2023-04-29T01:39:33.648Z,100.00
2023-04-29T01:42:21.271Z,100.00
2023-04-29T01:44:51.507Z,100.00
2023-04-29T01:47:22.916Z,100.00
2023-04-29T01:49:51.818Z,100.00
2023-04-29T01:52:20.137Z,100.00
2023-04-29T01:54:49.647Z,100.00
2023-04-29T01:57:18.008Z,100.00
2023-04-29T01:59:46.077Z,100.00
2023-04-29T02:02:15.849Z,100.00
2023-04-29T02:04:44.840Z,100.00
2023-04-29T02:07:12.978Z,100.00
2023-04-29T02:09:41.068Z,100.00
2023-04-29T02:12:10.676Z,100.00
2023-04-29T02:14:38.794Z,100.00
2023-04-29T02:17:06.917Z,100.00
2023-04-29T02:19:36.090Z,100.00
2023-04-29T02:22:04.280Z,100.00
2023-04-29T02:24:32.507Z,100.00
2023-04-29T02:27:00.660Z,100.00
2023-04-29T02:29:31.043Z,100.00
2023-04-29T02:31:59.268Z,100.00
2023-04-29T02:34:27.380Z,100.00
2023-04-29T02:36:56.263Z,100.00
2023-04-29T02:39:24.943Z,100.00
2023-04-29T02:41:57.091Z,100.00
2023-04-29T02:44:25.226Z,100.00
2023-04-29T02:46:54.651Z,100.00
2023-04-29T02:49:22.808Z,100.00
2023-04-29T02:51:50.965Z,100.00
2023-04-29T02:54:19.092Z,100.00
2023-04-29T02:56:47.146Z,100.00
2023-04-29T02:59:15.272Z,100.00
2023-04-29T03:01:43.523Z,100.00
2023-04-29T03:04:13.337Z,100.00
2023-04-29T03:06:41.780Z,100.00
2023-04-29T03:09:10.234Z,100.00
2023-04-29T03:11:38.945Z,100.00
2023-04-29T03:14:07.078Z,100.00
2023-04-29T03:16:35.413Z,100.00
2023-04-29T03:19:03.667Z,100.00
2023-04-29T03:21:33.710Z,100.00
2023-04-29T03:24:01.800Z,100.00
2023-04-29T03:26:30.120Z,100.00
2023-04-29T03:28:58.525Z,100.00
2023-04-29T03:31:27.290Z,100.00
2023-04-29T03:33:55.604Z,100.00
2023-04-29T03:36:23.742Z,100.00
2023-04-29T03:38:53.164Z,100.00
2023-04-29T03:41:23.939Z,100.00
2023-04-29T03:43:52.447Z,100.00
2023-04-29T03:46:22.565Z,100.00
2023-04-29T03:48:51.984Z,100.00
2023-04-29T03:51:20.195Z,100.00
2023-04-29T03:53:48.315Z,100.00
2023-04-29T03:56:18.415Z,100.00
2023-04-29T03:58:46.559Z,100.00
2023-04-29T04:01:15.573Z,100.00
2023-04-29T04:03:43.933Z,100.00
2023-04-29T04:06:12.316Z,99.70
2023-04-29T04:08:41.303Z,99.82
2023-04-29T04:11:09.716Z,99.52
2023-04-29T04:13:40.221Z,99.65
2023-04-29T04:16:08.463Z,99.87
2023-04-29T04:18:36.687Z,100.00
2023-04-29T04:21:07.643Z,100.00
2023-04-29T04:23:35.846Z,100.00
2023-04-29T04:26:04.129Z,100.00
2023-04-29T04:28:32.237Z,100.00
2023-04-29T04:31:02.298Z,100.00
2023-04-29T04:33:30.426Z,100.00
2023-04-29T04:35:59.025Z,100.00
2023-04-29T04:38:27.795Z,100.00
2023-04-29T04:40:55.951Z,100.00
2023-04-29T04:43:24.028Z,99.93
2023-04-29T04:45:52.902Z,99.91
2023-04-29T04:48:23.470Z,100.00
2023-04-29T04:50:51.614Z,100.00
2023-04-29T04:53:19.683Z,99.97
2023-04-29T04:55:47.814Z,99.46
2023-04-29T04:58:15.978Z,98.41
2023-04-29T05:00:46.843Z,97.36
2023-04-29T05:03:15.309Z,96.40
2023-04-29T05:05:46.044Z,96.26
2023-04-29T05:08:14.134Z,95.89
2023-04-29T05:10:44.419Z,95.34
2023-04-29T05:13:12.757Z,94.35
2023-04-29T05:15:41.033Z,93.66
2023-04-29T05:18:09.139Z,93.16
2023-04-29T05:20:37.534Z,93.56
2023-04-29T05:23:07.112Z,93.59
2023-04-29T05:25:35.385Z,93.26
2023-04-29T05:28:04.451Z,93.06
2023-04-29T05:30:32.609Z,92.14
2023-04-29T05:33:01.137Z,91.94
2023-04-29T05:35:29.534Z,92.29
2023-04-29T05:37:57.701Z,92.65
2023-04-29T05:40:27.393Z,91.58
2023-04-29T05:42:55.619Z,90.73
2023-04-29T05:45:23.833Z,90.62
2023-04-29T05:47:52.225Z,90.29
2023-04-29T05:50:22.557Z,90.24
2023-04-29T05:52:51.818Z,89.16
2023-04-29T05:55:20.402Z,88.72
2023-04-29T05:57:49.872Z,88.33
2023-04-29T06:00:22.588Z,87.07
2023-04-29T06:02:58.196Z,86.35
2023-04-29T06:05:27.895Z,85.99
2023-04-29T06:07:57.144Z,86.07
2023-04-29T06:10:25.931Z,83.74
2023-04-29T06:12:55.705Z,83.48
2023-04-29T06:15:23.918Z,83.36
2023-04-29T06:17:52.151Z,83.89
2023-04-29T06:20:20.548Z,83.73
2023-04-29T06:22:49.200Z,81.62
2023-04-29T06:25:17.853Z,81.85
2023-04-29T06:27:46.008Z,81.95
2023-04-29T06:30:15.728Z,82.39
2023-04-29T06:32:43.871Z,81.99
2023-04-29T06:35:12.074Z,81.50
2023-04-29T06:37:40.190Z,81.37
2023-04-29T06:40:10.158Z,80.78
2023-04-29T06:42:39.250Z,79.69
2023-04-29T06:45:08.886Z,80.03
2023-04-29T06:47:38.736Z,79.19
2023-04-29T06:50:07.988Z,78.86
2023-04-29T06:52:36.557Z,77.34
2023-04-29T06:55:05.482Z,76.99
2023-04-29T06:57:33.771Z,75.98
2023-04-29T07:00:01.897Z,75.82
2023-04-29T07:02:30.061Z,75.47
2023-04-29T07:04:59.899Z,76.07
2023-04-29T07:07:28.380Z,75.94
2023-04-29T07:09:56.714Z,75.20
2023-04-29T07:12:24.991Z,75.10
2023-04-29T07:14:53.239Z,74.84
2023-04-29T07:17:21.687Z,74.45
2023-04-29T07:19:50.083Z,73.31
2023-04-29T07:22:20.160Z,72.52
2023-04-29T07:24:48.295Z,73.34
2023-04-29T07:27:21.041Z,72.43
2023-04-29T07:29:49.804Z,72.29
2023-04-29T07:32:22.864Z,72.67
2023-04-29T07:34:52.722Z,73.23
2023-04-29T07:37:24.612Z,73.72
2023-04-29T07:39:52.870Z,73.84
2023-04-29T07:42:23.273Z,74.28
2023-04-29T07:44:51.671Z,74.50
2023-04-29T07:47:22.702Z,74.60
2023-04-29T07:49:51.474Z,74.76
2023-04-29T07:52:19.626Z,73.04
2023-04-29T07:54:49.056Z,70.62
2023-04-29T07:57:17.849Z,71.03
2023-04-29T07:59:45.949Z,70.44
2023-04-29T08:02:16.766Z,70.38
2023-04-29T08:04:45.336Z,71.48
2023-04-29T08:07:14.358Z,71.35
2023-04-29T08:09:42.481Z,71.32
2023-04-29T08:12:11.967Z,71.54
2023-04-29T08:14:40.069Z,71.32
2023-04-29T08:17:08.693Z,70.95
2023-04-29T08:19:41.139Z,71.06
2023-04-29T08:22:11.151Z,71.69
2023-04-29T08:24:39.356Z,72.81
2023-04-29T08:27:07.491Z,72.49
2023-04-29T08:29:37.270Z,71.22
2023-04-29T08:32:06.200Z,71.05
2023-04-29T08:34:36.546Z,69.74
2023-04-29T08:37:04.912Z,68.71
2023-04-29T08:39:33.118Z,67.34
2023-04-29T08:42:04.788Z,66.81
2023-04-29T08:44:33.976Z,66.43
2023-04-29T08:47:04.093Z,65.76
2023-04-29T08:49:33.521Z,66.94
2023-04-29T08:52:02.461Z,68.29
2023-04-29T08:54:32.227Z,69.26
2023-04-29T08:57:02.719Z,69.15
2023-04-29T08:59:31.710Z,70.16
2023-04-29T09:02:01.618Z,69.35
2023-04-29T09:04:48.421Z,70.06
2023-04-29T09:07:18.355Z,69.23
2023-04-29T09:09:47.601Z,69.23
2023-04-29T09:12:15.774Z,67.83
2023-04-29T09:14:44.369Z,66.82
2023-04-29T09:17:12.501Z,66.60
2023-04-29T09:19:42.157Z,66.79
2023-04-29T09:22:11.124Z,67.42
2023-04-29T09:24:39.911Z,67.73
2023-04-29T09:27:09.162Z,68.24
2023-04-29T09:29:38.716Z,67.89
2023-04-29T09:32:21.547Z,68.63
2023-04-29T09:34:51.269Z,68.65
2023-04-29T09:37:27.835Z,68.13
2023-04-29T09:39:56.486Z,66.81
2023-04-29T09:42:24.955Z,65.52
2023-04-29T09:44:54.519Z,63.59
2023-04-29T09:47:32.739Z,65.00
2023-04-29T09:50:20.034Z,65.93
2023-04-29T09:52:52.681Z,67.45
2023-04-29T09:55:24.386Z,67.08
2023-04-29T09:57:52.745Z,67.52
2023-04-29T10:00:21.115Z,66.85
2023-04-29T10:02:51.066Z,67.17
2023-04-29T10:05:23.401Z,67.77
2023-04-29T10:07:53.167Z,68.87
2023-04-29T10:10:24.463Z,70.39
2023-04-29T10:12:54.977Z,70.93
2023-04-29T10:15:35.270Z,71.08
2023-04-29T10:18:20.037Z,71.67
2023-04-29T10:20:51.995Z,71.40
2023-04-29T10:23:23.560Z,69.90
2023-04-29T10:25:54.297Z,68.19
2023-04-29T10:28:25.412Z,65.73
2023-04-29T10:30:57.036Z,65.86
2023-04-29T10:33:30.486Z,67.19
2023-04-29T10:36:01.217Z,67.54
2023-04-29T10:38:40.221Z,68.37
2023-04-29T10:41:20.452Z,68.03
2023-04-29T10:43:49.048Z,68.42
2023-04-29T10:46:23.619Z,69.76
2023-04-29T10:48:57.569Z,70.58
2023-04-29T10:51:35.489Z,71.49
2023-04-29T10:54:09.092Z,71.75
2023-04-29T10:56:39.443Z,72.48
2023-04-29T10:59:11.820Z,71.44
2023-04-29T11:01:49.440Z,72.15
2023-04-29T11:04:19.014Z,71.11
2023-04-29T11:06:53.714Z,70.56
2023-04-29T11:09:26.766Z,70.98
2023-04-29T11:12:05.306Z,70.18
2023-04-29T11:14:37.795Z,70.20
2023-04-29T11:17:11.435Z,69.98
2023-04-29T11:19:45.038Z,69.95
2023-04-29T11:22:26.985Z,68.79
2023-04-29T11:24:58.652Z,67.56
2023-04-29T11:27:30.974Z,66.26
2023-04-29T11:30:01.140Z,65.58
2023-04-29T11:32:31.383Z,65.56
2023-04-29T11:35:11.630Z,64.95
2023-04-29T11:37:42.213Z,65.49
2023-04-29T11:40:13.265Z,66.17
2023-04-29T11:42:45.299Z,66.64
2023-04-29T11:45:15.105Z,67.48
2023-04-29T11:47:46.104Z,68.46
2023-04-29T11:50:17.673Z,68.77
2023-04-29T11:52:49.104Z,69.70
2023-04-29T11:55:17.583Z,68.83
2023-04-29T11:57:45.899Z,68.34
2023-04-29T12:00:16.584Z,68.33
2023-04-29T12:02:48.291Z,68.97
2023-04-29T12:05:17.476Z,68.12
2023-04-29T12:07:47.451Z,67.70
2023-04-29T12:10:15.644Z,67.69
2023-04-29T12:12:45.891Z,66.99
2023-04-29T12:15:15.189Z,66.64
2023-04-29T12:17:46.306Z,65.35
2023-04-29T12:20:15.095Z,65.32
2023-04-29T12:22:44.528Z,65.02
2023-04-29T12:25:14.541Z,64.14
2023-04-29T12:27:43.622Z,62.59
2023-04-29T12:30:13.168Z,62.59
2023-04-29T12:32:41.951Z,62.22
2023-04-29T12:35:17.830Z,60.10
2023-04-29T12:37:50.723Z,60.15
2023-04-29T12:40:21.427Z,59.39
2023-04-29T12:42:49.813Z,58.85
2023-04-29T12:45:30.239Z,58.87
2023-04-29T12:47:59.862Z,58.38
2023-04-29T12:50:34.190Z,58.83
2023-04-29T12:53:04.840Z,56.60
2023-04-29T12:55:35.710Z,56.60
2023-04-29T12:58:04.165Z,55.98
2023-04-29T13:00:32.694Z,55.70
2023-04-29T13:03:01.305Z,55.63
2023-04-29T13:05:29.804Z,56.58
2023-04-29T13:07:58.013Z,56.63
2023-04-29T13:10:26.380Z,56.88
2023-04-29T13:12:56.745Z,58.47
2023-04-29T13:15:24.877Z,59.31
2023-04-29T13:17:53.103Z,59.86
2023-04-29T13:20:21.874Z,61.07
2023-04-29T13:22:50.539Z,62.04
2023-04-29T13:25:18.881Z,62.58
2023-04-29T13:27:46.990Z,62.40
2023-04-29T13:30:16.958Z,61.32
2023-04-29T13:32:51.695Z,61.36
2023-04-29T13:35:23.551Z,62.47
2023-04-29T13:37:52.322Z,61.34
2023-04-29T13:40:21.354Z,61.28
2023-04-29T13:42:50.746Z,61.87
2023-04-29T13:45:28.722Z,62.34
2023-04-29T13:48:09.633Z,62.41
2023-04-29T14:03:23.089Z,58.54
2023-04-29T14:05:51.346Z,57.99
2023-04-29T14:08:19.469Z,58.25
2023-04-29T14:10:47.874Z,57.42
2023-04-29T14:13:17.618Z,56.89
2023-04-29T14:15:46.725Z,57.03
2023-04-29T14:18:16.215Z,57.06
2023-04-29T14:20:44.335Z,57.14
2023-04-29T14:23:12.498Z,57.51
2023-04-29T14:25:40.660Z,57.59
2023-04-29T14:28:08.793Z,58.67
2023-04-29T14:30:36.937Z,57.78
2023-04-29T14:33:05.508Z,57.82
2023-04-29T14:35:35.036Z,57.28
2023-04-29T14:38:03.328Z,57.42
2023-04-29T14:40:31.456Z,56.15
2023-04-29T14:42:59.600Z,55.88
2023-04-29T14:45:28.189Z,55.83
2023-04-29T14:47:56.379Z,55.54
2023-04-29T14:50:25.200Z,56.29
2023-04-29T14:52:54.741Z,57.43
2023-04-29T14:55:22.864Z,57.79
2023-04-29T14:57:51.046Z,59.10
2023-04-29T15:00:19.495Z,59.15
2023-04-29T15:02:47.765Z,59.95
2023-04-29T15:05:16.053Z,59.63
2023-04-29T15:07:44.335Z,59.80
2023-04-29T15:10:13.884Z,59.58
2023-04-29T15:12:42.301Z,59.97
2023-04-29T15:15:11.681Z,60.63
2023-04-29T15:17:39.898Z,60.26
2023-04-29T15:20:10.195Z,60.44
2023-04-29T15:22:38.359Z,60.73
2023-04-29T15:25:07.556Z,60.61
2023-04-29T15:27:37.745Z,60.26
2023-04-29T15:30:07.363Z,60.42
2023-04-29T15:32:35.614Z,60.83
2023-04-29T15:35:06.659Z,60.42
2023-04-29T15:37:34.804Z,58.92
2023-04-29T15:40:03.756Z,59.80
2023-04-29T15:42:31.972Z,59.69
2023-04-29T15:45:01.570Z,57.69
2023-04-29T15:47:29.747Z,57.62
2023-04-29T15:49:57.853Z,57.86
2023-04-29T15:52:25.916Z,58.40
2023-04-29T15:54:54.034Z,58.62
2023-04-29T15:57:22.152Z,58.56
2023-04-29T15:59:50.502Z,58.24
2023-04-29T16:02:21.036Z,58.12
2023-04-29T16:04:49.422Z,57.66
2023-04-29T16:07:18.565Z,57.67
2023-04-29T16:09:46.684Z,57.04
2023-04-29T16:12:14.780Z,57.92
2023-04-29T16:14:42.852Z,57.29
2023-04-29T16:17:11.337Z,57.57
2023-04-29T16:19:40.830Z,58.21
2023-04-29T16:22:08.945Z,57.81
2023-04-29T16:24:37.048Z,58.18
2023-04-29T16:27:05.252Z,58.58
2023-04-29T16:29:33.382Z,58.75
2023-04-29T16:32:01.516Z,58.68
2023-04-29T16:34:29.646Z,58.22
2023-04-29T16:36:59.178Z,57.58
2023-04-29T16:39:27.277Z,58.58
2023-04-29T16:41:55.455Z,59.15
2023-04-29T16:44:23.609Z,58.69
2023-04-29T16:46:51.852Z,59.14
2023-04-29T16:49:26.616Z,60.17
2023-04-29T16:51:55.572Z,59.54
2023-04-29T16:54:25.477Z,59.73
2023-04-29T16:56:53.564Z,60.29
2023-04-29T16:59:22.102Z,60.46
2023-04-29T17:01:50.499Z,59.85
2023-04-29T17:04:18.797Z,59.93
2023-04-29T17:06:46.999Z,60.33
2023-04-29T17:09:15.721Z,60.69
2023-04-29T17:11:45.252Z,61.07
2023-04-29T17:14:13.356Z,61.61
2023-04-29T17:16:41.797Z,62.04
2023-04-29T17:19:10.134Z,62.39
2023-04-29T17:21:38.281Z,62.77
2023-04-29T17:24:07.085Z,62.53
2023-04-29T17:26:35.236Z,62.67
2023-04-29T17:29:05.058Z,62.67
2023-04-29T17:31:45.010Z,62.96
2023-04-29T17:34:19.105Z,63.66
2023-04-29T17:36:47.900Z,63.35
2023-04-29T17:39:16.241Z,63.43
2023-04-29T17:41:44.608Z,63.65
2023-04-29T17:44:14.334Z,63.38
2023-04-29T17:46:42.642Z,64.19
2023-04-29T17:49:11.421Z,64.36
2023-04-29T17:51:39.607Z,64.03
2023-04-29T17:54:09.065Z,63.80
2023-04-29T17:56:38.003Z,64.17
2023-04-29T17:59:06.954Z,64.71
2023-04-29T18:01:37.073Z,64.71
2023-04-29T18:04:06.024Z,64.45
2023-04-29T18:06:34.874Z,65.04
2023-04-29T18:09:03.155Z,64.75
2023-04-29T18:11:31.328Z,64.75
2023-04-29T18:13:59.561Z,64.15
2023-04-29T18:16:27.943Z,65.04
2023-04-29T18:18:57.426Z,64.71
2023-04-29T18:21:27.532Z,64.89
2023-04-29T18:23:55.793Z,65.34
2023-04-29T18:26:24.761Z,65.92
2023-04-29T18:28:52.974Z,66.18
2023-04-29T18:31:23.185Z,65.86
2023-04-29T18:33:51.406Z,66.04
2023-04-29T18:36:23.558Z,66.78
2023-04-29T18:38:51.802Z,67.12
2023-04-29T18:41:19.917Z,67.40
2023-04-29T18:43:48.048Z,67.65
2023-04-29T18:46:16.280Z,67.31
2023-04-29T18:48:44.406Z,67.44
2023-04-29T18:51:12.564Z,67.54
2023-04-29T18:53:42.077Z,66.86
2023-04-29T18:56:10.391Z,67.03
2023-04-29T18:58:38.469Z,66.80
2023-04-29T19:01:06.985Z,67.25
2023-04-29T19:03:35.426Z,67.77
2023-04-29T19:06:03.815Z,67.63
2023-04-29T19:08:31.973Z,67.50
2023-04-29T19:11:01.489Z,67.20
2023-04-29T19:13:29.571Z,67.47
2023-04-29T19:15:57.771Z,67.80
2023-04-29T19:18:26.146Z,67.38
2023-04-29T19:20:56.006Z,67.61
2023-04-29T19:23:24.142Z,67.17
2023-04-29T19:25:52.249Z,67.19
2023-04-29T19:28:21.806Z,67.42
2023-04-29T19:30:50.016Z,67.63
2023-04-29T19:33:18.181Z,67.98
2023-04-29T19:35:46.405Z,67.94
2023-04-29T19:38:14.553Z,67.74
2023-04-29T19:40:42.700Z,67.50
2023-04-29T19:43:10.849Z,67.69
2023-04-29T19:45:40.731Z,67.61
2023-04-29T19:48:08.942Z,68.00
2023-04-29T19:50:37.195Z,67.47
2023-04-29T19:53:05.676Z,67.26
2023-04-29T19:55:33.856Z,67.51
2023-04-29T19:58:02.073Z,67.26
2023-04-29T20:00:31.351Z,67.61
2023-04-29T20:03:01.400Z,67.19
2023-04-29T20:05:30.038Z,67.37
2023-04-29T20:07:58.268Z,66.69
2023-04-29T20:10:28.985Z,66.72
2023-04-29T20:12:58.089Z,67.10
2023-04-29T20:15:26.697Z,67.37
2023-04-29T20:17:55.628Z,67.98
2023-04-29T20:20:26.076Z,68.41
2023-04-29T20:22:57.878Z,68.59
2023-04-29T20:25:26.996Z,68.78
2023-04-29T20:27:55.324Z,68.28
2023-04-29T20:30:23.722Z,67.73
2023-04-29T20:32:51.866Z,68.26
2023-04-29T20:35:20.650Z,68.59
2023-04-29T20:37:50.154Z,68.63
2023-04-29T20:40:18.456Z,68.54
2023-04-29T20:42:47.022Z,68.95
2023-04-29T20:45:15.373Z,68.37
2023-04-29T20:47:44.259Z,68.42
2023-04-29T20:50:13.027Z,68.14
2023-04-29T20:52:41.562Z,67.94
2023-04-29T20:55:11.254Z,68.39
2023-04-29T20:57:39.667Z,68.26
2023-04-29T21:00:09.641Z,68.33
2023-04-29T21:02:37.830Z,68.34
2023-04-29T21:05:09.829Z,68.31
2023-04-29T21:07:38.497Z,68.00
2023-04-29T21:10:07.653Z,68.54
2023-04-29T21:12:37.098Z,67.92
2023-04-29T21:15:06.151Z,68.41
2023-04-29T21:17:34.295Z,68.57
2023-04-29T21:20:02.382Z,68.96
2023-04-29T21:22:30.505Z,68.99
2023-04-29T21:24:58.806Z,69.34
2023-04-29T21:27:26.960Z,68.76
2023-04-29T21:29:57.654Z,69.11
2023-04-29T21:32:25.804Z,68.74
2023-04-29T21:34:53.953Z,69.50
2023-04-29T21:37:22.177Z,69.40
2023-04-29T21:39:50.840Z,69.57
2023-04-29T21:42:22.394Z,69.34
2023-04-29T21:44:50.595Z,69.48
2023-04-29T21:47:20.378Z,70.02
2023-04-29T21:49:50.324Z,69.25
2023-04-29T21:52:18.664Z,69.21
2023-04-29T21:54:46.956Z,68.82
2023-04-29T21:57:15.057Z,68.97
2023-04-29T21:59:43.148Z,69.82
2023-04-29T22:02:21.961Z,69.27
2023-04-29T22:04:53.531Z,69.83
2023-04-29T22:07:23.467Z,70.17
2023-04-29T22:09:51.547Z,70.59
2023-04-29T22:12:20.623Z,71.18
2023-04-29T22:14:49.261Z,71.26
2023-04-29T22:17:17.344Z,71.41
2023-04-29T22:19:45.436Z,71.67
2023-04-29T22:22:14.959Z,71.91
2023-04-29T22:24:43.039Z,71.78
2023-04-29T22:27:11.151Z,71.42
2023-04-29T22:29:39.353Z,71.78
2023-04-29T22:32:07.540Z,72.34
2023-04-29T22:34:35.935Z,71.79
2023-04-29T22:37:04.078Z,71.48
2023-04-29T22:39:33.609Z,71.15
2023-04-29T22:42:02.902Z,71.13
2023-04-29T22:44:31.142Z,70.71
2023-04-29T22:46:59.666Z,70.05
2023-04-29T22:49:27.757Z,70.47
2023-04-29T22:51:55.889Z,71.41
2023-04-29T22:54:24.004Z,70.94
2023-04-29T22:56:53.446Z,71.08
2023-04-29T22:59:21.835Z,70.22
2023-04-29T23:01:50.015Z,71.22
2023-04-29T23:04:18.196Z,71.13
2023-04-29T23:06:46.379Z,71.22
2023-04-29T23:09:14.502Z,71.11
2023-04-29T23:11:43.389Z,71.38
2023-04-29T23:14:12.876Z,72.50
2023-04-29T23:16:40.965Z,71.88
2023-04-29T23:19:09.073Z,71.52
2023-04-29T23:21:37.185Z,71.90
2023-04-29T23:24:06.333Z,72.22
2023-04-29T23:26:34.453Z,72.23
2023-04-29T23:29:02.525Z,72.48
2023-04-29T23:31:32.058Z,73.22
2023-04-29T23:34:00.768Z,73.09
2023-04-29T23:36:28.892Z,73.74
2023-04-29T23:38:57.015Z,73.78
2023-04-29T23:41:25.101Z,73.99
2023-04-29T23:43:53.329Z,74.59
2023-04-29T23:46:21.546Z,74.08
2023-04-29T23:48:51.044Z,74.08
2023-04-29T23:51:19.150Z,74.55
2023-04-29T23:53:47.226Z,75.12
2023-04-29T23:56:15.298Z,75.71
2023-04-29T23:58:43.377Z,76.35
